sensor_id;sensor_type;location;lat;lon;timestamp;P1;durP1;ratioP1;P2;durP2;ratioP2
46815;SDS011;32787;53.316;8.670;2023-04-29T00:00:52;49.10;;;31.77;;
46815;SDS011;32787;53.316;8.670;2023-04-29T00:03:18;50.17;;;33.65;;
46815;SDS011;32787;53.316;8.670;2023-04-29T00:05:44;49.42;;;32.92;;
46815;SDS011;32787;53.316;8.670;2023-04-29T00:08:10;52.88;;;33.03;;
46815;SDS011;32787;53.316;8.670;2023-04-29T00:10:35;52.95;;;33.85;;
46815;SDS011;32787;53.316;8.670;2023-04-29T00:13:01;55.45;;;34.05;;
46815;SDS011;32787;53.316;8.670;2023-04-29T00:15:27;50.63;;;33.20;;
46815;SDS011;32787;53.316;8.670;2023-04-29T00:17:53;52.92;;;34.05;;
46815;SDS011;32787;53.316;8.670;2023-04-29T00:20:19;50.65;;;33.50;;
46815;SDS011;32787;53.316;8.670;2023-04-29T00:22:45;50.20;;;31.90;;
46815;SDS011;32787;53.316;8.670;2023-04-29T00:25:11;51.95;;;32.95;;
46815;SDS011;32787;53.316;8.670;2023-04-29T00:27:37;50.65;;;31.50;;
46815;SDS011;32787;53.316;8.670;2023-04-29T00:30:04;47.85;;;31.00;;
46815;SDS011;32787;53.316;8.670;2023-04-29T00:32:32;47.47;;;30.50;;
46815;SDS011;32787;53.316;8.670;2023-04-29T00:34:57;48.13;;;31.20;;
46815;SDS011;32787;53.316;8.670;2023-04-29T00:37:23;46.72;;;30.70;;
46815;SDS011;32787;53.316;8.670;2023-04-29T00:39:49;47.15;;;29.38;;
46815;SDS011;32787;53.316;8.670;2023-04-29T00:42:14;48.17;;;30.10;;
46815;SDS011;32787;53.316;8.670;2023-04-29T00:44:40;49.55;;;29.80;;
46815;SDS011;32787;53.316;8.670;2023-04-29T00:47:06;43.92;;;28.55;;
46815;SDS011;32787;53.316;8.670;2023-04-29T00:49:35;43.05;;;27.77;;
46815;SDS011;32787;53.316;8.670;2023-04-29T00:52:02;41.58;;;27.35;;
46815;SDS011;32787;53.316;8.670;2023-04-29T00:54:28;41.08;;;27.48;;
46815;SDS011;32787;53.316;8.670;2023-04-29T00:56:54;44.60;;;27.77;;
46815;SDS011;32787;53.316;8.670;2023-04-29T00:59:21;42.33;;;27.58;;
46815;SDS011;32787;53.316;8.670;2023-04-29T01:01:47;44.65;;;27.60;;
46815;SDS011;32787;53.316;8.670;2023-04-29T01:04:12;47.05;;;28.25;;
46815;SDS011;32787;53.316;8.670;2023-04-29T01:06:48;48.45;;;28.40;;
46815;SDS011;32787;53.316;8.670;2023-04-29T01:14:59;45.10;;;28.92;;
46815;SDS011;32787;53.316;8.670;2023-04-29T01:20:19;42.08;;;27.67;;
46815;SDS011;32787;53.316;8.670;2023-04-29T01:22:47;42.95;;;27.42;;
46815;SDS011;32787;53.316;8.670;2023-04-29T01:25:13;43.10;;;26.58;;
46815;SDS011;32787;53.316;8.670;2023-04-29T01:28:14;43.97;;;27.45;;
46815;SDS011;32787;53.316;8.670;2023-04-29T01:30:49;41.30;;;25.50;;
46815;SDS011;32787;53.316;8.670;2023-04-29T01:33:32;44.53;;;26.77;;
46815;SDS011;32787;53.316;8.670;2023-04-29T01:38:46;42.53;;;25.63;;
46815;SDS011;32787;53.316;8.670;2023-04-29T01:41:34;41.28;;;25.58;;
46815;SDS011;32787;53.316;8.670;2023-04-29T01:44:07;43.33;;;24.83;;
46815;SDS011;32787;53.316;8.670;2023-04-29T01:46:38;41.40;;;25.70;;
46815;SDS011;32787;53.316;8.670;2023-04-29T01:49:06;43.60;;;24.92;;
46815;SDS011;32787;53.316;8.670;2023-04-29T01:51:32;45.03;;;26.55;;
46815;SDS011;32787;53.316;8.670;2023-04-29T01:53:58;40.33;;;24.75;;
46815;SDS011;32787;53.316;8.670;2023-04-29T01:56:24;42.35;;;24.85;;
46815;SDS011;32787;53.316;8.670;2023-04-29T01:58:49;41.97;;;24.92;;
46815;SDS011;32787;53.316;8.670;2023-04-29T02:01:15;43.35;;;24.77;;
46815;SDS011;32787;53.316;8.670;2023-04-29T02:03:41;35.97;;;23.50;;
46815;SDS011;32787;53.316;8.670;2023-04-29T02:06:07;38.15;;;24.40;;
46815;SDS011;32787;53.316;8.670;2023-04-29T02:08:32;41.22;;;25.00;;
46815;SDS011;32787;53.316;8.670;2023-04-29T02:10:58;39.57;;;22.87;;
46815;SDS011;32787;53.316;8.670;2023-04-29T02:13:24;36.60;;;25.08;;
46815;SDS011;32787;53.316;8.670;2023-04-29T02:15:50;45.97;;;25.55;;
46815;SDS011;32787;53.316;8.670;2023-04-29T02:18:16;43.13;;;26.08;;
46815;SDS011;32787;53.316;8.670;2023-04-29T02:20:41;40.97;;;26.15;;
46815;SDS011;32787;53.316;8.670;2023-04-29T02:23:07;43.92;;;26.83;;
46815;SDS011;32787;53.316;8.670;2023-04-29T02:25:33;40.13;;;25.40;;
46815;SDS011;32787;53.316;8.670;2023-04-29T02:27:58;39.00;;;25.65;;
46815;SDS011;32787;53.316;8.670;2023-04-29T02:30:24;39.97;;;26.25;;
46815;SDS011;32787;53.316;8.670;2023-04-29T02:32:50;43.35;;;25.08;;
46815;SDS011;32787;53.316;8.670;2023-04-29T02:35:17;44.13;;;26.67;;
46815;SDS011;32787;53.316;8.670;2023-04-29T02:37:42;43.00;;;25.40;;
46815;SDS011;32787;53.316;8.670;2023-04-29T02:40:09;40.35;;;24.98;;
46815;SDS011;32787;53.316;8.670;2023-04-29T02:42:35;40.70;;;25.23;;
46815;SDS011;32787;53.316;8.670;2023-04-29T02:45:02;43.25;;;26.65;;
46815;SDS011;32787;53.316;8.670;2023-04-29T02:47:28;39.10;;;25.08;;
46815;SDS011;32787;53.316;8.670;2023-04-29T02:49:54;41.70;;;25.30;;
46815;SDS011;32787;53.316;8.670;2023-04-29T02:52:19;43.13;;;25.48;;
46815;SDS011;32787;53.316;8.670;2023-04-29T02:54:45;45.08;;;26.55;;
46815;SDS011;32787;53.316;8.670;2023-04-29T02:57:11;40.03;;;25.33;;
46815;SDS011;32787;53.316;8.670;2023-04-29T02:59:36;39.03;;;25.50;;
46815;SDS011;32787;53.316;8.670;2023-04-29T03:02:02;41.75;;;26.38;;
46815;SDS011;32787;53.316;8.670;2023-04-29T03:04:28;39.78;;;24.73;;
46815;SDS011;32787;53.316;8.670;2023-04-29T03:06:54;40.58;;;25.45;;
46815;SDS011;32787;53.316;8.670;2023-04-29T03:09:20;46.30;;;27.17;;
46815;SDS011;32787;53.316;8.670;2023-04-29T03:11:47;39.93;;;25.97;;
46815;SDS011;32787;53.316;8.670;2023-04-29T03:14:13;41.72;;;26.00;;
46815;SDS011;32787;53.316;8.670;2023-04-29T03:16:39;42.10;;;25.17;;
46815;SDS011;32787;53.316;8.670;2023-04-29T03:19:04;39.30;;;25.75;;
46815;SDS011;32787;53.316;8.670;2023-04-29T03:21:30;40.30;;;25.63;;
46815;SDS011;32787;53.316;8.670;2023-04-29T03:23:56;38.60;;;26.13;;
46815;SDS011;32787;53.316;8.670;2023-04-29T03:26:22;44.13;;;26.25;;
46815;SDS011;32787;53.316;8.670;2023-04-29T03:28:49;44.05;;;26.63;;
46815;SDS011;32787;53.316;8.670;2023-04-29T03:31:15;43.65;;;27.25;;
46815;SDS011;32787;53.316;8.670;2023-04-29T03:33:41;45.58;;;28.23;;
46815;SDS011;32787;53.316;8.670;2023-04-29T03:36:06;48.13;;;28.40;;
46815;SDS011;32787;53.316;8.670;2023-04-29T03:38:33;45.20;;;26.98;;
46815;SDS011;32787;53.316;8.670;2023-04-29T03:40:58;46.97;;;28.80;;
46815;SDS011;32787;53.316;8.670;2023-04-29T03:43:24;43.63;;;28.48;;
46815;SDS011;32787;53.316;8.670;2023-04-29T03:45:50;53.53;;;29.70;;
46815;SDS011;32787;53.316;8.670;2023-04-29T03:48:16;48.30;;;30.60;;
46815;SDS011;32787;53.316;8.670;2023-04-29T03:50:43;48.85;;;29.63;;
46815;SDS011;32787;53.316;8.670;2023-04-29T03:53:09;50.90;;;31.25;;
46815;SDS011;32787;53.316;8.670;2023-04-29T03:55:35;51.58;;;30.33;;
46815;SDS011;32787;53.316;8.670;2023-04-29T03:58:01;44.90;;;28.10;;
46815;SDS011;32787;53.316;8.670;2023-04-29T04:00:27;49.70;;;28.08;;
46815;SDS011;32787;53.316;8.670;2023-04-29T04:02:55;46.03;;;27.38;;
46815;SDS011;32787;53.316;8.670;2023-04-29T04:05:21;47.38;;;28.27;;
46815;SDS011;32787;53.316;8.670;2023-04-29T04:07:49;43.05;;;27.10;;
46815;SDS011;32787;53.316;8.670;2023-04-29T04:10:16;48.00;;;28.67;;
46815;SDS011;32787;53.316;8.670;2023-04-29T04:12:42;44.63;;;27.38;;
46815;SDS011;32787;53.316;8.670;2023-04-29T04:15:07;47.63;;;28.67;;
46815;SDS011;32787;53.316;8.670;2023-04-29T04:17:33;46.55;;;28.45;;
46815;SDS011;32787;53.316;8.670;2023-04-29T04:19:59;51.45;;;29.42;;
46815;SDS011;32787;53.316;8.670;2023-04-29T04:22:24;48.28;;;29.33;;
46815;SDS011;32787;53.316;8.670;2023-04-29T04:24:50;40.88;;;26.40;;
46815;SDS011;32787;53.316;8.670;2023-04-29T04:27:18;47.47;;;27.27;;
46815;SDS011;32787;53.316;8.670;2023-04-29T04:29:44;43.95;;;27.13;;
46815;SDS011;32787;53.316;8.670;2023-04-29T04:32:09;47.40;;;27.95;;
46815;SDS011;32787;53.316;8.670;2023-04-29T04:34:35;48.88;;;29.60;;
46815;SDS011;32787;53.316;8.670;2023-04-29T04:37:03;46.78;;;28.27;;
46815;SDS011;32787;53.316;8.670;2023-04-29T04:39:29;45.78;;;28.85;;
46815;SDS011;32787;53.316;8.670;2023-04-29T04:41:54;45.47;;;28.33;;
46815;SDS011;32787;53.316;8.670;2023-04-29T04:44:20;47.05;;;29.23;;
46815;SDS011;32787;53.316;8.670;2023-04-29T04:46:46;47.70;;;29.10;;
46815;SDS011;32787;53.316;8.670;2023-04-29T04:49:11;47.60;;;28.83;;
46815;SDS011;32787;53.316;8.670;2023-04-29T04:51:37;49.50;;;29.58;;
46815;SDS011;32787;53.316;8.670;2023-04-29T04:54:02;49.88;;;28.75;;
46815;SDS011;32787;53.316;8.670;2023-04-29T04:56:28;46.42;;;27.95;;
46815;SDS011;32787;53.316;8.670;2023-04-29T04:58:54;44.67;;;27.70;;
46815;SDS011;32787;53.316;8.670;2023-04-29T05:01:20;49.78;;;28.40;;
46815;SDS011;32787;53.316;8.670;2023-04-29T05:03:45;42.83;;;27.25;;
46815;SDS011;32787;53.316;8.670;2023-04-29T05:06:11;46.25;;;28.08;;
46815;SDS011;32787;53.316;8.670;2023-04-29T05:08:36;44.97;;;27.70;;
46815;SDS011;32787;53.316;8.670;2023-04-29T05:11:02;48.33;;;27.98;;
46815;SDS011;32787;53.316;8.670;2023-04-29T05:13:28;44.58;;;26.92;;
46815;SDS011;32787;53.316;8.670;2023-04-29T05:15:53;44.83;;;27.17;;
46815;SDS011;32787;53.316;8.670;2023-04-29T05:18:19;45.47;;;28.42;;
46815;SDS011;32787;53.316;8.670;2023-04-29T05:20:44;46.63;;;29.02;;
46815;SDS011;32787;53.316;8.670;2023-04-29T05:23:10;44.63;;;27.63;;
46815;SDS011;32787;53.316;8.670;2023-04-29T05:25:36;48.20;;;28.30;;
46815;SDS011;32787;53.316;8.670;2023-04-29T05:28:02;44.50;;;28.05;;
46815;SDS011;32787;53.316;8.670;2023-04-29T05:30:28;45.30;;;28.25;;
46815;SDS011;32787;53.316;8.670;2023-04-29T05:32:54;49.78;;;28.67;;
46815;SDS011;32787;53.316;8.670;2023-04-29T05:35:20;49.47;;;29.35;;
46815;SDS011;32787;53.316;8.670;2023-04-29T05:37:46;46.92;;;29.00;;
46815;SDS011;32787;53.316;8.670;2023-04-29T05:40:11;44.35;;;28.42;;
46815;SDS011;32787;53.316;8.670;2023-04-29T05:42:37;49.85;;;29.88;;
46815;SDS011;32787;53.316;8.670;2023-04-29T05:45:03;47.10;;;29.33;;
46815;SDS011;32787;53.316;8.670;2023-04-29T05:47:28;43.63;;;27.48;;
46815;SDS011;32787;53.316;8.670;2023-04-29T05:49:54;50.42;;;28.23;;
46815;SDS011;32787;53.316;8.670;2023-04-29T05:52:20;47.88;;;28.02;;
46815;SDS011;32787;53.316;8.670;2023-04-29T05:54:45;44.70;;;28.17;;
46815;SDS011;32787;53.316;8.670;2023-04-29T05:57:11;47.45;;;27.80;;
46815;SDS011;32787;53.316;8.670;2023-04-29T05:59:36;46.58;;;27.70;;
46815;SDS011;32787;53.316;8.670;2023-04-29T06:02:02;50.13;;;28.55;;
46815;SDS011;32787;53.316;8.670;2023-04-29T06:04:28;47.20;;;26.98;;
46815;SDS011;32787;53.316;8.670;2023-04-29T06:06:54;48.50;;;27.95;;
46815;SDS011;32787;53.316;8.670;2023-04-29T06:09:21;49.33;;;27.30;;
46815;SDS011;32787;53.316;8.670;2023-04-29T06:11:49;48.97;;;27.17;;
46815;SDS011;32787;53.316;8.670;2023-04-29T06:14:15;47.75;;;26.45;;
46815;SDS011;32787;53.316;8.670;2023-04-29T06:16:41;51.22;;;26.30;;
46815;SDS011;32787;53.316;8.670;2023-04-29T06:19:06;46.65;;;26.95;;
46815;SDS011;32787;53.316;8.670;2023-04-29T06:21:32;39.50;;;23.67;;
46815;SDS011;32787;53.316;8.670;2023-04-29T06:23:58;44.08;;;23.85;;
46815;SDS011;32787;53.316;8.670;2023-04-29T06:26:23;47.80;;;24.90;;
46815;SDS011;32787;53.316;8.670;2023-04-29T06:28:49;45.78;;;25.48;;
46815;SDS011;32787;53.316;8.670;2023-04-29T06:31:15;42.55;;;23.17;;
46815;SDS011;32787;53.316;8.670;2023-04-29T06:33:41;41.15;;;24.38;;
46815;SDS011;32787;53.316;8.670;2023-04-29T06:36:07;43.05;;;22.60;;
46815;SDS011;32787;53.316;8.670;2023-04-29T06:38:32;39.35;;;21.80;;
46815;SDS011;32787;53.316;8.670;2023-04-29T06:40:58;38.92;;;22.30;;
46815;SDS011;32787;53.316;8.670;2023-04-29T06:43:28;39.28;;;21.58;;
46815;SDS011;32787;53.316;8.670;2023-04-29T06:45:54;37.83;;;20.92;;
46815;SDS011;32787;53.316;8.670;2023-04-29T06:48:20;35.25;;;20.30;;
46815;SDS011;32787;53.316;8.670;2023-04-29T06:50:53;40.42;;;19.92;;
46815;SDS011;32787;53.316;8.670;2023-04-29T06:53:20;32.72;;;19.90;;
46815;SDS011;32787;53.316;8.670;2023-04-29T06:55:46;37.05;;;18.73;;
46815;SDS011;32787;53.316;8.670;2023-04-29T06:58:12;35.17;;;18.50;;
46815;SDS011;32787;53.316;8.670;2023-04-29T07:00:45;33.23;;;19.60;;
46815;SDS011;32787;53.316;8.670;2023-04-29T07:03:12;31.05;;;17.95;;
46815;SDS011;32787;53.316;8.670;2023-04-29T07:05:38;36.55;;;17.92;;
46815;SDS011;32787;53.316;8.670;2023-04-29T07:08:05;32.03;;;17.70;;
46815;SDS011;32787;53.316;8.670;2023-04-29T07:10:32;29.75;;;17.33;;
46815;SDS011;32787;53.316;8.670;2023-04-29T07:12:58;31.05;;;17.60;;
46815;SDS011;32787;53.316;8.670;2023-04-29T07:15:24;30.13;;;17.25;;
46815;SDS011;32787;53.316;8.670;2023-04-29T07:17:54;26.75;;;15.85;;
46815;SDS011;32787;53.316;8.670;2023-04-29T07:20:20;33.65;;;15.55;;
46815;SDS011;32787;53.316;8.670;2023-04-29T07:22:46;28.27;;;16.33;;
46815;SDS011;32787;53.316;8.670;2023-04-29T07:25:12;27.88;;;15.80;;
46815;SDS011;32787;53.316;8.670;2023-04-29T07:27:38;31.48;;;16.80;;
46815;SDS011;32787;53.316;8.670;2023-04-29T07:30:04;28.80;;;16.63;;
46815;SDS011;32787;53.316;8.670;2023-04-29T07:32:30;33.00;;;16.27;;
46815;SDS011;32787;53.316;8.670;2023-04-29T07:34:59;27.15;;;15.57;;
46815;SDS011;32787;53.316;8.670;2023-04-29T07:37:25;26.63;;;15.68;;
46815;SDS011;32787;53.316;8.670;2023-04-29T07:39:51;26.02;;;15.25;;
46815;SDS011;32787;53.316;8.670;2023-04-29T07:42:17;26.45;;;14.00;;
46815;SDS011;32787;53.316;8.670;2023-04-29T07:44:42;25.50;;;14.35;;
46815;SDS011;32787;53.316;8.670;2023-04-29T07:47:09;28.42;;;15.45;;
46815;SDS011;32787;53.316;8.670;2023-04-29T07:49:36;29.70;;;15.13;;
46815;SDS011;32787;53.316;8.670;2023-04-29T07:52:03;25.45;;;15.20;;
46815;SDS011;32787;53.316;8.670;2023-04-29T07:54:29;25.52;;;14.82;;
46815;SDS011;32787;53.316;8.670;2023-04-29T07:56:56;25.23;;;15.32;;
46815;SDS011;32787;53.316;8.670;2023-04-29T07:59:22;26.17;;;14.98;;
46815;SDS011;32787;53.316;8.670;2023-04-29T08:01:48;24.77;;;14.98;;
46815;SDS011;32787;53.316;8.670;2023-04-29T08:04:14;26.08;;;14.80;;
46815;SDS011;32787;53.316;8.670;2023-04-29T08:06:39;22.75;;;13.80;;
46815;SDS011;32787;53.316;8.670;2023-04-29T08:09:06;24.65;;;13.18;;
46815;SDS011;32787;53.316;8.670;2023-04-29T08:11:31;23.52;;;13.82;;
46815;SDS011;32787;53.316;8.670;2023-04-29T08:13:57;23.45;;;13.30;;
46815;SDS011;32787;53.316;8.670;2023-04-29T08:16:24;23.65;;;12.77;;
46815;SDS011;32787;53.316;8.670;2023-04-29T08:18:51;23.52;;;13.60;;
46815;SDS011;32787;53.316;8.670;2023-04-29T08:21:17;21.80;;;11.98;;
46815;SDS011;32787;53.316;8.670;2023-04-29T08:23:43;21.20;;;12.05;;
46815;SDS011;32787;53.316;8.670;2023-04-29T08:26:09;24.00;;;12.82;;
46815;SDS011;32787;53.316;8.670;2023-04-29T08:28:36;23.10;;;13.10;;
46815;SDS011;32787;53.316;8.670;2023-04-29T08:31:02;21.45;;;11.93;;
46815;SDS011;32787;53.316;8.670;2023-04-29T08:33:31;20.70;;;11.70;;
46815;SDS011;32787;53.316;8.670;2023-04-29T08:35:57;22.80;;;10.82;;
46815;SDS011;32787;53.316;8.670;2023-04-29T08:38:24;18.48;;;10.48;;
46815;SDS011;32787;53.316;8.670;2023-04-29T08:40:50;17.25;;;9.85;;
46815;SDS011;32787;53.316;8.670;2023-04-29T08:43:15;22.48;;;11.43;;
46815;SDS011;32787;53.316;8.670;2023-04-29T08:45:42;18.08;;;10.65;;
46815;SDS011;32787;53.316;8.670;2023-04-29T08:48:08;16.85;;;10.32;;
46815;SDS011;32787;53.316;8.670;2023-04-29T08:50:38;18.63;;;11.43;;
46815;SDS011;32787;53.316;8.670;2023-04-29T08:53:14;19.17;;;11.80;;
46815;SDS011;32787;53.316;8.670;2023-04-29T08:55:46;18.17;;;11.35;;
46815;SDS011;32787;53.316;8.670;2023-04-29T08:58:13;18.90;;;11.18;;
46815;SDS011;32787;53.316;8.670;2023-04-29T09:00:40;20.40;;;11.45;;
46815;SDS011;32787;53.316;8.670;2023-04-29T09:03:17;17.20;;;11.00;;
46815;SDS011;32787;53.316;8.670;2023-04-29T09:05:54;21.95;;;12.32;;
46815;SDS011;32787;53.316;8.670;2023-04-29T09:08:23;18.70;;;11.80;;
46815;SDS011;32787;53.316;8.670;2023-04-29T09:10:50;23.58;;;11.82;;
46815;SDS011;32787;53.316;8.670;2023-04-29T09:13:26;18.13;;;11.00;;
46815;SDS011;32787;53.316;8.670;2023-04-29T09:15:55;20.27;;;11.05;;
46815;SDS011;32787;53.316;8.670;2023-04-29T09:18:40;19.27;;;11.10;;
46815;SDS011;32787;53.316;8.670;2023-04-29T09:21:12;18.05;;;10.63;;
46815;SDS011;32787;53.316;8.670;2023-04-29T09:23:38;18.70;;;10.97;;
46815;SDS011;32787;53.316;8.670;2023-04-29T09:26:03;17.45;;;10.73;;
46815;SDS011;32787;53.316;8.670;2023-04-29T09:28:29;17.23;;;10.68;;
46815;SDS011;32787;53.316;8.670;2023-04-29T09:30:55;18.08;;;9.95;;
46815;SDS011;32787;53.316;8.670;2023-04-29T09:33:20;17.17;;;10.73;;
46815;SDS011;32787;53.316;8.670;2023-04-29T09:35:46;19.02;;;10.02;;
46815;SDS011;32787;53.316;8.670;2023-04-29T09:38:13;17.90;;;10.18;;
46815;SDS011;32787;53.316;8.670;2023-04-29T09:40:41;18.45;;;10.75;;
46815;SDS011;32787;53.316;8.670;2023-04-29T09:43:11;18.45;;;9.68;;
46815;SDS011;32787;53.316;8.670;2023-04-29T09:45:43;16.27;;;10.20;;
46815;SDS011;32787;53.316;8.670;2023-04-29T09:48:10;18.88;;;10.07;;
46815;SDS011;32787;53.316;8.670;2023-04-29T09:50:37;15.27;;;9.77;;
46815;SDS011;32787;53.316;8.670;2023-04-29T09:53:04;18.20;;;10.27;;
46815;SDS011;32787;53.316;8.670;2023-04-29T09:55:33;16.92;;;9.88;;
46815;SDS011;32787;53.316;8.670;2023-04-29T09:57:59;14.02;;;8.32;;
46815;SDS011;32787;53.316;8.670;2023-04-29T10:00:25;17.25;;;9.60;;
46815;SDS011;32787;53.316;8.670;2023-04-29T10:02:57;15.88;;;9.20;;
46815;SDS011;32787;53.316;8.670;2023-04-29T10:05:26;17.67;;;9.07;;
46815;SDS011;32787;53.316;8.670;2023-04-29T10:07:54;16.15;;;8.90;;
46815;SDS011;32787;53.316;8.670;2023-04-29T10:10:20;17.50;;;8.35;;
46815;SDS011;32787;53.316;8.670;2023-04-29T10:12:48;13.43;;;8.32;;
46815;SDS011;32787;53.316;8.670;2023-04-29T10:15:30;13.73;;;8.67;;
46815;SDS011;32787;53.316;8.670;2023-04-29T10:18:07;13.05;;;7.50;;
46815;SDS011;32787;53.316;8.670;2023-04-29T10:20:42;15.07;;;7.85;;
46815;SDS011;32787;53.316;8.670;2023-04-29T10:23:11;14.80;;;8.35;;
46815;SDS011;32787;53.316;8.670;2023-04-29T10:25:41;13.32;;;7.80;;
46815;SDS011;32787;53.316;8.670;2023-04-29T10:28:08;15.93;;;8.15;;
46815;SDS011;32787;53.316;8.670;2023-04-29T10:30:41;12.98;;;7.50;;
46815;SDS011;32787;53.316;8.670;2023-04-29T10:33:08;12.63;;;6.95;;
46815;SDS011;32787;53.316;8.670;2023-04-29T10:35:37;13.75;;;7.18;;
46815;SDS011;32787;53.316;8.670;2023-04-29T10:38:49;14.38;;;6.90;;
46815;SDS011;32787;53.316;8.670;2023-04-29T10:41:14;11.93;;;6.32;;
46815;SDS011;32787;53.316;8.670;2023-04-29T10:43:47;12.70;;;6.57;;
46815;SDS011;32787;53.316;8.670;2023-04-29T10:48:43;14.13;;;6.38;;
46815;SDS011;32787;53.316;8.670;2023-04-29T10:51:09;10.25;;;5.45;;
46815;SDS011;32787;53.316;8.670;2023-04-29T10:53:34;11.65;;;5.35;;
46815;SDS011;32787;53.316;8.670;2023-04-29T10:56:03;11.50;;;5.05;;
46815;SDS011;32787;53.316;8.670;2023-04-29T11:01:02;11.32;;;4.25;;
46815;SDS011;32787;53.316;8.670;2023-04-29T11:03:45;12.50;;;4.30;;
46815;SDS011;32787;53.316;8.670;2023-04-29T11:06:18;7.90;;;3.15;;
46815;SDS011;32787;53.316;8.670;2023-04-29T11:08:44;9.07;;;3.72;;
46815;SDS011;32787;53.316;8.670;2023-04-29T11:11:11;11.45;;;4.53;;
46815;SDS011;32787;53.316;8.670;2023-04-29T11:13:38;10.02;;;4.68;;
46815;SDS011;32787;53.316;8.670;2023-04-29T11:18:31;10.55;;;4.55;;
46815;SDS011;32787;53.316;8.670;2023-04-29T11:23:32;9.38;;;4.82;;
46815;SDS011;32787;53.316;8.670;2023-04-29T11:25:59;9.43;;;4.93;;
46815;SDS011;32787;53.316;8.670;2023-04-29T11:28:32;10.07;;;4.72;;
46815;SDS011;32787;53.316;8.670;2023-04-29T11:30:58;10.15;;;4.85;;
46815;SDS011;32787;53.316;8.670;2023-04-29T11:33:24;9.50;;;4.70;;
46815;SDS011;32787;53.316;8.670;2023-04-29T11:35:54;8.52;;;4.60;;
46815;SDS011;32787;53.316;8.670;2023-04-29T11:38:26;8.95;;;4.90;;
46815;SDS011;32787;53.316;8.670;2023-04-29T11:40:53;9.85;;;5.45;;
46815;SDS011;32787;53.316;8.670;2023-04-29T11:43:20;12.35;;;5.82;;
46815;SDS011;32787;53.316;8.670;2023-04-29T11:45:46;14.55;;;7.13;;
46815;SDS011;32787;53.316;8.670;2023-04-29T11:48:19;11.10;;;6.28;;
46815;SDS011;32787;53.316;8.670;2023-04-29T11:50:56;14.35;;;6.47;;
46815;SDS011;32787;53.316;8.670;2023-04-29T11:53:23;17.20;;;6.30;;
46815;SDS011;32787;53.316;8.670;2023-04-29T11:55:52;11.25;;;5.57;;
46815;SDS011;32787;53.316;8.670;2023-04-29T11:58:21;14.15;;;5.75;;
46815;SDS011;32787;53.316;8.670;2023-04-29T12:00:47;11.57;;;5.75;;
46815;SDS011;32787;53.316;8.670;2023-04-29T12:03:14;11.27;;;5.88;;
46815;SDS011;32787;53.316;8.670;2023-04-29T12:05:47;11.98;;;6.00;;
46815;SDS011;32787;53.316;8.670;2023-04-29T12:10:46;12.32;;;5.50;;
46815;SDS011;32787;53.316;8.670;2023-04-29T12:13:12;9.75;;;5.13;;
46815;SDS011;32787;53.316;8.670;2023-04-29T12:15:38;11.15;;;5.05;;
46815;SDS011;32787;53.316;8.670;2023-04-29T12:18:04;12.07;;;5.22;;
46815;SDS011;32787;53.316;8.670;2023-04-29T12:20:30;11.43;;;4.65;;
46815;SDS011;32787;53.316;8.670;2023-04-29T12:22:56;10.38;;;4.43;;
46815;SDS011;32787;53.316;8.670;2023-04-29T12:25:43;10.68;;;4.55;;
46815;SDS011;32787;53.316;8.670;2023-04-29T12:28:15;10.63;;;3.83;;
46815;SDS011;32787;53.316;8.670;2023-04-29T12:30:45;9.20;;;3.60;;
46815;SDS011;32787;53.316;8.670;2023-04-29T12:33:17;7.38;;;3.65;;
46815;SDS011;32787;53.316;8.670;2023-04-29T12:36:01;11.82;;;3.40;;
46815;SDS011;32787;53.316;8.670;2023-04-29T12:38:28;7.90;;;3.97;;
46815;SDS011;32787;53.316;8.670;2023-04-29T12:40:55;10.00;;;3.10;;
46815;SDS011;32787;53.316;8.670;2023-04-29T12:43:28;6.78;;;2.60;;
46815;SDS011;32787;53.316;8.670;2023-04-29T12:46:05;7.07;;;2.80;;
46815;SDS011;32787;53.316;8.670;2023-04-29T12:48:37;8.07;;;2.40;;
46815;SDS011;32787;53.316;8.670;2023-04-29T12:51:07;5.43;;;2.25;;
46815;SDS011;32787;53.316;8.670;2023-04-29T12:53:34;7.82;;;3.10;;
46815;SDS011;32787;53.316;8.670;2023-04-29T12:56:00;8.15;;;2.63;;
46815;SDS011;32787;53.316;8.670;2023-04-29T12:58:29;8.23;;;2.17;;
46815;SDS011;32787;53.316;8.670;2023-04-29T13:00:55;5.43;;;2.40;;
46815;SDS011;32787;53.316;8.670;2023-04-29T13:03:21;6.72;;;2.47;;
46815;SDS011;32787;53.316;8.670;2023-04-29T13:05:47;6.93;;;2.15;;
46815;SDS011;32787;53.316;8.670;2023-04-29T13:08:16;7.70;;;2.22;;
46815;SDS011;32787;53.316;8.670;2023-04-29T13:10:42;5.32;;;2.20;;
46815;SDS011;32787;53.316;8.670;2023-04-29T13:13:08;8.93;;;2.28;;
46815;SDS011;32787;53.316;8.670;2023-04-29T13:15:34;6.57;;;2.10;;
46815;SDS011;32787;53.316;8.670;2023-04-29T13:18:00;6.25;;;1.98;;
46815;SDS011;32787;53.316;8.670;2023-04-29T13:20:26;5.95;;;1.90;;
46815;SDS011;32787;53.316;8.670;2023-04-29T13:22:52;4.90;;;1.75;;
46815;SDS011;32787;53.316;8.670;2023-04-29T13:25:17;5.00;;;1.83;;
46815;SDS011;32787;53.316;8.670;2023-04-29T13:27:43;5.78;;;1.98;;
46815;SDS011;32787;53.316;8.670;2023-04-29T13:30:09;6.50;;;1.90;;
46815;SDS011;32787;53.316;8.670;2023-04-29T13:32:35;5.70;;;2.40;;
46815;SDS011;32787;53.316;8.670;2023-04-29T13:35:01;6.28;;;2.03;;
46815;SDS011;32787;53.316;8.670;2023-04-29T13:37:28;6.82;;;2.05;;
46815;SDS011;32787;53.316;8.670;2023-04-29T13:39:53;6.13;;;2.03;;
46815;SDS011;32787;53.316;8.670;2023-04-29T13:42:19;3.95;;;1.50;;
46815;SDS011;32787;53.316;8.670;2023-04-29T13:44:45;8.48;;;1.70;;
46815;SDS011;32787;53.316;8.670;2023-04-29T13:47:11;6.55;;;2.25;;
46815;SDS011;32787;53.316;8.670;2023-04-29T13:49:40;5.68;;;2.00;;
46815;SDS011;32787;53.316;8.670;2023-04-29T13:52:08;9.40;;;2.30;;
46815;SDS011;32787;53.316;8.670;2023-04-29T13:54:34;8.47;;;1.90;;
46815;SDS011;32787;53.316;8.670;2023-04-29T13:57:00;4.95;;;2.10;;
46815;SDS011;32787;53.316;8.670;2023-04-29T13:59:32;5.88;;;1.85;;
46815;SDS011;32787;53.316;8.670;2023-04-29T14:01:58;8.70;;;2.13;;
46815;SDS011;32787;53.316;8.670;2023-04-29T14:04:25;6.85;;;1.92;;
46815;SDS011;32787;53.316;8.670;2023-04-29T14:06:51;10.95;;;2.45;;
46815;SDS011;32787;53.316;8.670;2023-04-29T14:09:17;7.75;;;2.80;;
46815;SDS011;32787;53.316;8.670;2023-04-29T14:11:44;8.85;;;3.40;;
46815;SDS011;32787;53.316;8.670;2023-04-29T14:14:10;9.77;;;3.30;;
46815;SDS011;32787;53.316;8.670;2023-04-29T14:16:35;6.28;;;3.00;;
46815;SDS011;32787;53.316;8.670;2023-04-29T14:19:01;6.50;;;2.90;;
46815;SDS011;32787;53.316;8.670;2023-04-29T14:21:27;9.25;;;3.05;;
46815;SDS011;32787;53.316;8.670;2023-04-29T14:23:53;6.55;;;2.67;;
46815;SDS011;32787;53.316;8.670;2023-04-29T14:26:19;5.70;;;3.03;;
46815;SDS011;32787;53.316;8.670;2023-04-29T14:28:45;7.93;;;2.97;;
46815;SDS011;32787;53.316;8.670;2023-04-29T14:31:10;8.55;;;3.17;;
46815;SDS011;32787;53.316;8.670;2023-04-29T14:33:37;8.40;;;2.97;;
46815;SDS011;32787;53.316;8.670;2023-04-29T14:36:04;5.60;;;2.53;;
46815;SDS011;32787;53.316;8.670;2023-04-29T14:38:31;7.97;;;3.10;;
46815;SDS011;32787;53.316;8.670;2023-04-29T14:40:57;6.72;;;2.55;;
46815;SDS011;32787;53.316;8.670;2023-04-29T14:43:22;5.13;;;2.40;;
46815;SDS011;32787;53.316;8.670;2023-04-29T14:45:48;5.35;;;2.78;;
46815;SDS011;32787;53.316;8.670;2023-04-29T14:48:14;8.18;;;3.10;;
46815;SDS011;32787;53.316;8.670;2023-04-29T14:50:40;7.28;;;2.78;;
46815;SDS011;32787;53.316;8.670;2023-04-29T14:53:05;6.45;;;2.67;;